Time;durP1;ratioP1;P1;durP2;ratioP2;P2;SDS_P1;SDS_P2;PMS_P1;PMS_P2;Temp;Humidity;BMP_temperature;BMP_pressure;BME280_temperature;BME280_humidity;BME280_pressure;Samples;Min_cycle;Max_cycle;Signal;HPM_P1;HPM_P2
2023/08/24 00:01:50;;;;;;;;;;;24.10;58.10;;;;;;5096076;28;19972;-58
2023/08/24 00:04:17;;;;;;;;;;;24.10;58.10;;;;;;5097964;28;19928;-58
2023/08/24 00:06:44;;;;;;;;;;;24.10;58.10;;;;;;5101439;27;19923;-59
2023/08/24 00:09:10;;;;;;;;;;;24.10;58.10;;;;;;5116874;27;20056;-58
2023/08/24 00:11:37;;;;;;;;;;;24.10;58.10;;;;;;5090590;28;19931;-58
2023/08/24 00:14:04;;;;;;;;;;;24.10;58.10;;;;;;5102421;27;19930;-59
2023/08/24 00:16:32;;;;;;;;;;;24.10;58.20;;;;;;5098687;28;19988;-58
2023/08/24 00:18:59;;;;;;;;;;;24.10;58.20;;;;;;5106944;28;19924;-59
2023/08/24 00:21:26;;;;;;;;;;;24.10;58.10;;;;;;5123653;27;19923;-59
2023/08/24 00:23:53;;;;;;;;;;;24.10;58.20;;;;;;5096450;27;19939;-58
2023/08/24 00:26:20;;;;;;;;;;;24.10;58.20;;;;;;5109059;27;20015;-59
2023/08/24 00:28:46;;;;;;;;;;;24.10;58.20;;;;;;5100587;28;19923;-58
2023/08/24 00:31:13;;;;;;;;;;;24.10;58.20;;;;;;5105529;28;19935;-58
2023/08/24 00:33:41;;;;;;;;;;;24.10;58.20;;;;;;5103259;27;19924;-58
2023/08/24 00:36:08;;;;;;;;;;;24.10;58.20;;;;;;5116842;27;19977;-59
2023/08/24 00:38:35;;;;;;;;;;;24.10;58.20;;;;;;5115978;27;19931;-58
2023/08/24 00:41:02;;;;;;;;;;;24.10;58.30;;;;;;5100700;27;19930;-58
2023/08/24 00:43:29;;;;;;;;;;;24.10;58.30;;;;;;5088481;28;19973;-59
2023/08/24 00:45:56;;;;;;;;;;;24.10;58.30;;;;;;5101891;27;19923;-59
2023/08/24 00:48:25;;;;;;;;;;;24.10;58.40;;;;;;5101062;27;19923;-58
2023/08/24 00:50:53;;;;;;;;;;;24.10;58.30;;;;;;5101083;28;19939;-58
2023/08/24 00:53:21;;;;;;;;;;;24.10;58.40;;;;;;5100406;28;19951;-57
2023/08/24 00:55:47;;;;;;;;;;;24.10;58.40;;;;;;5108174;27;20007;-58
2023/08/24 00:58:14;;;;;;;;;;;24.10;58.40;;;;;;5115608;27;19973;-59
2023/08/24 01:00:41;;;;;;;;;;;24.10;58.40;;;;;;5113509;27;19954;-58
2023/08/24 01:03:08;;;;;;;;;;;24.10;58.40;;;;;;5097412;27;19924;-59
2023/08/24 01:05:34;;;;;;;;;;;24.10;58.40;;;;;;5100607;28;20357;-58
2023/08/24 01:08:03;;;;;;;;;;;24.10;58.40;;;;;;5095911;28;19923;-58
2023/08/24 01:10:31;;;;;;;;;;;24.10;58.50;;;;;;5096737;28;20034;-59
2023/08/24 01:13:00;;;;;;;;;;;24.10;58.50;;;;;;5112751;27;19927;-58
2023/08/24 01:15:29;;;;;;;;;;;24.10;58.50;;;;;;5097169;28;20010;-58
2023/08/24 01:17:56;;;;;;;;;;;24.10;58.50;;;;;;5101094;27;19927;-58
2023/08/24 01:20:23;;;;;;;;;;;24.10;58.50;;;;;;5128302;27;19977;-58
2023/08/24 01:22:52;;;;;;;;;;;24.10;58.50;;;;;;5094803;28;19931;-59
2023/08/24 01:25:23;;;;;;;;;;;24.10;58.50;;;;;;5109018;27;20501;-57
2023/08/24 01:27:54;;;;;;;;;;;24.10;58.50;;;;;;5100900;27;19979;-59
2023/08/24 01:30:21;;;;;;;;;;;24.10;59.00;;;;;;5116757;27;19923;-58
2023/08/24 01:32:48;;;;;;;;;;;24.10;58.50;;;;;;5114147;27;19936;-61
2023/08/24 01:35:14;;;;;;;;;;;24.10;58.50;;;;;;5107059;27;19923;-58
2023/08/24 01:37:41;;;;;;;;;;;24.10;58.50;;;;;;5097327;28;19932;-59
2023/08/24 01:40:12;;;;;;;;;;;24.10;58.50;;;;;;5097770;27;19972;-59
2023/08/24 01:42:41;;;;;;;;;;;24.10;58.50;;;;;;5096064;28;19932;-59
2023/08/24 01:45:09;;;;;;;;;;;24.10;58.40;;;;;;5100080;27;19924;-58
2023/08/24 01:47:36;;;;;;;;;;;24.10;58.50;;;;;;5096763;28;19923;-58
2023/08/24 01:50:03;;;;;;;;;;;24.10;58.50;;;;;;5099591;27;20380;-59
2023/08/24 01:52:30;;;;;;;;;;;24.10;58.60;;;;;;5102980;27;19923;-58
2023/08/24 01:54:57;;;;;;;;;;;24.10;58.60;;;;;;5098036;27;19931;-58
2023/08/24 01:57:24;;;;;;;;;;;24.10;58.60;;;;;;5095953;28;20086;-58
2023/08/24 01:59:51;;;;;;;;;;;24.10;58.70;;;;;;5118356;27;19931;-58
2023/08/24 02:02:19;;;;;;;;;;;24.10;58.60;;;;;;5094062;28;19972;-58
2023/08/24 02:04:45;;;;;;;;;;;24.10;58.70;;;;;;5103529;28;19938;-58
2023/08/24 02:07:12;;;;;;;;;;;24.10;58.70;;;;;;5103197;27;19923;-58
2023/08/24 02:09:39;;;;;;;;;;;24.10;58.70;;;;;;5096314;27;19932;-58
2023/08/24 02:12:06;;;;;;;;;;;24.10;58.70;;;;;;5100106;28;19932;-59
2023/08/24 02:14:32;;;;;;;;;;;24.10;58.70;;;;;;5119030;27;19981;-58
2023/08/24 02:16:59;;;;;;;;;;;24.10;58.60;;;;;;5114042;27;19936;-58
2023/08/24 02:19:27;;;;;;;;;;;24.10;58.60;;;;;;5115762;27;19931;-57
2023/08/24 02:21:54;;;;;;;;;;;24.10;58.60;;;;;;5091921;28;19957;-58
2023/08/24 02:24:21;;;;;;;;;;;24.10;58.60;;;;;;5107263;27;19927;-58
2023/08/24 02:26:47;;;;;;;;;;;24.10;58.50;;;;;;5080740;28;19930;-59
2023/08/24 02:29:14;;;;;;;;;;;24.10;58.50;;;;;;5120940;27;20035;-58
2023/08/24 02:31:41;;;;;;;;;;;24.10;58.50;;;;;;5096196;28;20047;-58
2023/08/24 02:34:08;;;;;;;;;;;24.10;58.50;;;;;;5097139;28;20576;-58
2023/08/24 02:36:36;;;;;;;;;;;24.10;58.50;;;;;;5078392;28;19989;-59
2023/08/24 02:39:03;;;;;;;;;;;24.10;58.50;;;;;;5101635;28;19924;-59
2023/08/24 02:41:31;;;;;;;;;;;24.10;58.60;;;;;;5101133;28;19930;-58
2023/08/24 02:43:58;;;;;;;;;;;24.10;58.50;;;;;;5099351;28;19980;-58
2023/08/24 02:46:24;;;;;;;;;;;24.10;58.50;;;;;;5100449;28;19924;-58
2023/08/24 02:48:51;;;;;;;;;;;24.00;58.40;;;;;;5117460;28;19924;-58
2023/08/24 02:51:18;;;;;;;;;;;24.10;58.50;;;;;;5097805;28;19927;-58
2023/08/24 02:53:46;;;;;;;;;;;24.10;58.50;;;;;;5093127;28;20342;-58
2023/08/24 02:56:13;;;;;;;;;;;24.10;58.60;;;;;;5113714;28;20698;-58
2023/08/24 02:58:40;;;;;;;;;;;24.00;58.50;;;;;;5093480;28;19934;-58
2023/08/24 03:01:07;;;;;;;;;;;24.10;58.60;;;;;;5097721;28;19933;-58
2023/08/24 03:03:33;;;;;;;;;;;24.00;58.50;;;;;;5110870;28;19934;-59
2023/08/24 03:06:00;;;;;;;;;;;24.10;58.60;;;;;;5119640;27;19993;-60
2023/08/24 03:08:27;;;;;;;;;;;24.10;58.50;;;;;;5098332;28;19926;-58
2023/08/24 03:10:58;;;;;;;;;;;24.00;59.00;;;;;;5102010;28;22645;-59
2023/08/24 03:13:24;;;;;;;;;;;24.10;58.50;;;;;;5121807;27;20322;-58
2023/08/24 03:15:52;;;;;;;;;;;24.10;58.60;;;;;;5096645;28;19923;-59
2023/08/24 03:18:18;;;;;;;;;;;24.10;58.60;;;;;;5119271;27;19931;-58
2023/08/24 03:20:45;;;;;;;;;;;24.10;58.50;;;;;;5102430;27;19924;-58
2023/08/24 03:23:12;;;;;;;;;;;24.00;58.50;;;;;;5099239;27;19962;-58
2023/08/24 03:25:39;;;;;;;;;;;24.10;58.50;;;;;;5096791;27;20007;-58
2023/08/24 03:28:08;;;;;;;;;;;24.10;58.50;;;;;;5109786;27;19927;-59
2023/08/24 03:30:34;;;;;;;;;;;24.00;58.40;;;;;;5101612;28;19927;-60
2023/08/24 03:33:02;;;;;;;;;;;24.10;58.50;;;;;;5104991;28;19924;-58
2023/08/24 03:35:29;;;;;;;;;;;24.00;58.40;;;;;;5099491;27;19930;-58
2023/08/24 03:37:56;;;;;;;;;;;24.10;58.50;;;;;;5116859;27;19923;-58
2023/08/24 03:40:23;;;;;;;;;;;24.00;58.40;;;;;;5108727;27;20606;-57
2023/08/24 03:42:50;;;;;;;;;;;24.10;58.40;;;;;;5075732;28;19971;-59
2023/08/24 03:45:18;;;;;;;;;;;24.00;58.30;;;;;;5103333;28;20010;-58
2023/08/24 03:47:45;;;;;;;;;;;24.10;58.40;;;;;;5115133;28;19977;-58
2023/08/24 03:50:11;;;;;;;;;;;24.00;58.30;;;;;;5104266;27;19991;-58
2023/08/24 03:52:39;;;;;;;;;;;24.00;58.30;;;;;;5105572;27;20368;-59
2023/08/24 03:55:06;;;;;;;;;;;24.00;58.30;;;;;;5095355;28;19924;-58
2023/08/24 03:57:33;;;;;;;;;;;24.00;58.30;;;;;;5129282;27;19977;-58
2023/08/24 04:00:00;;;;;;;;;;;24.00;58.30;;;;;;5116324;27;19928;-58
2023/08/24 04:02:28;;;;;;;;;;;24.00;58.30;;;;;;5100361;28;19961;-58
2023/08/24 04:04:55;;;;;;;;;;;24.00;58.20;;;;;;5104116;28;19938;-58
2023/08/24 04:07:21;;;;;;;;;;;24.00;58.30;;;;;;5103675;27;19931;-58
2023/08/24 04:09:48;;;;;;;;;;;24.00;58.20;;;;;;5114976;27;19924;-58
2023/08/24 04:12:15;;;;;;;;;;;24.00;58.20;;;;;;5108330;27;19923;-58
2023/08/24 04:14:42;;;;;;;;;;;24.00;58.20;;;;;;5117442;27;20289;-58
2023/08/24 04:17:08;;;;;;;;;;;24.00;58.20;;;;;;5101310;28;19935;-59
2023/08/24 04:19:38;;;;;;;;;;;24.00;58.20;;;;;;5106647;27;19927;-58
2023/08/24 04:22:05;;;;;;;;;;;24.00;58.30;;;;;;5119353;27;19970;-58
2023/08/24 04:24:32;;;;;;;;;;;24.00;58.30;;;;;;5126869;27;20452;-58
2023/08/24 04:26:59;;;;;;;;;;;24.00;58.30;;;;;;5098005;27;19924;-58
2023/08/24 04:29:25;;;;;;;;;;;24.00;58.30;;;;;;5096722;28;19924;-58
2023/08/24 04:31:52;;;;;;;;;;;24.00;58.30;;;;;;5096296;27;19928;-58
2023/08/24 04:34:19;;;;;;;;;;;24.00;58.30;;;;;;5098956;28;19923;-58
2023/08/24 04:36:47;;;;;;;;;;;24.00;58.30;;;;;;5114172;27;20530;-58
2023/08/24 04:39:14;;;;;;;;;;;24.00;58.30;;;;;;5094389;28;19928;-58
2023/08/24 04:41:40;;;;;;;;;;;24.00;58.30;;;;;;5090328;28;19927;-58
2023/08/24 04:44:08;;;;;;;;;;;24.00;58.30;;;;;;5101507;28;19923;-58
2023/08/24 04:46:34;;;;;;;;;;;24.00;58.20;;;;;;5098460;28;19963;-60
2023/08/24 04:49:01;;;;;;;;;;;24.00;58.30;;;;;;5113380;27;19932;-58
2023/08/24 04:51:29;;;;;;;;;;;24.00;58.30;;;;;;5111262;27;19930;-58
2023/08/24 04:53:57;;;;;;;;;;;24.00;58.30;;;;;;5100637;28;19932;-58
2023/08/24 04:56:24;;;;;;;;;;;24.00;58.30;;;;;;5102602;28;19981;-58
2023/08/24 04:58:54;;;;;;;;;;;24.00;58.30;;;;;;5119474;27;19932;-58
2023/08/24 05:01:21;;;;;;;;;;;23.90;58.30;;;;;;5088639;28;19924;-58
2023/08/24 05:03:48;;;;;;;;;;;24.00;58.20;;;;;;5096236;27;19976;-58
2023/08/24 05:06:15;;;;;;;;;;;24.00;58.20;;;;;;5094484;28;19923;-58
2023/08/24 05:08:41;;;;;;;;;;;24.00;58.20;;;;;;5100012;28;19932;-58
2023/08/24 05:11:13;;;;;;;;;;;24.00;58.20;;;;;;5096078;28;19927;-59
2023/08/24 05:13:40;;;;;;;;;;;24.00;58.20;;;;;;5113974;27;20024;-59
2023/08/24 05:16:07;;;;;;;;;;;24.00;58.20;;;;;;5102198;27;19924;-59
2023/08/24 05:18:34;;;;;;;;;;;24.00;58.20;;;;;;5100507;28;19930;-58
2023/08/24 05:21:01;;;;;;;;;;;24.00;58.20;;;;;;5104886;27;19932;-58
2023/08/24 05:23:28;;;;;;;;;;;24.00;58.20;;;;;;5124547;27;19983;-58
2023/08/24 05:25:55;;;;;;;;;;;24.00;58.20;;;;;;5103498;27;20309;-58
2023/08/24 05:28:23;;;;;;;;;;;24.00;58.20;;;;;;5115039;27;19927;-58
2023/08/24 05:30:50;;;;;;;;;;;24.00;58.20;;;;;;5095829;28;19932;-58
2023/08/24 05:33:17;;;;;;;;;;;24.00;58.20;;;;;;5094933;28;19946;-58
2023/08/24 05:35:43;;;;;;;;;;;24.00;58.20;;;;;;5114362;27;19927;-58
2023/08/24 05:38:10;;;;;;;;;;;24.00;58.20;;;;;;5093017;28;19931;-58
2023/08/24 05:40:37;;;;;;;;;;;24.00;58.70;;;;;;5094436;27;19924;-58
2023/08/24 05:43:04;;;;;;;;;;;24.00;58.20;;;;;;5099549;28;19944;-58
2023/08/24 05:45:32;;;;;;;;;;;24.00;58.20;;;;;;5092988;28;20019;-58
2023/08/24 05:47:59;;;;;;;;;;;24.00;58.20;;;;;;5094644;27;19930;-58
2023/08/24 05:50:25;;;;;;;;;;;24.00;58.20;;;;;;5092162;28;19932;-58
2023/08/24 05:52:52;;;;;;;;;;;24.00;58.20;;;;;;5094854;27;19924;-58
2023/08/24 05:55:19;;;;;;;;;;;24.00;58.30;;;;;;5095834;28;20530;-58
2023/08/24 05:57:46;;;;;;;;;;;24.00;58.30;;;;;;5095537;27;19924;-58
2023/08/24 06:00:13;;;;;;;;;;;24.00;58.40;;;;;;5094969;28;19928;-58
2023/08/24 06:02:41;;;;;;;;;;;24.00;58.30;;;;;;5090850;28;19985;-57
2023/08/24 06:05:08;;;;;;;;;;;23.90;58.30;;;;;;5091165;27;19935;-58
2023/08/24 06:07:35;;;;;;;;;;;24.00;58.30;;;;;;5094156;28;19924;-58
2023/08/24 06:10:02;;;;;;;;;;;24.00;58.30;;;;;;5107081;27;19934;-58
2023/08/24 06:12:28;;;;;;;;;;;24.00;58.40;;;;;;5118068;27;19924;-59
2023/08/24 06:14:55;;;;;;;;;;;24.00;58.40;;;;;;5092058;28;19932;-60
2023/08/24 06:17:22;;;;;;;;;;;24.00;58.40;;;;;;5094519;28;19988;-58
2023/08/24 06:19:50;;;;;;;;;;;24.00;58.40;;;;;;5097779;28;19927;-58
2023/08/24 06:22:17;;;;;;;;;;;24.00;58.40;;;;;;5114281;27;19924;-58
2023/08/24 06:24:44;;;;;;;;;;;24.00;58.50;;;;;;5114290;27;19931;-58
2023/08/24 06:27:11;;;;;;;;;;;24.00;58.40;;;;;;5085234;28;19977;-59
2023/08/24 06:29:38;;;;;;;;;;;24.00;58.50;;;;;;5101309;28;19931;-58
2023/08/24 06:32:05;;;;;;;;;;;23.90;58.50;;;;;;5101793;27;20299;-59
2023/08/24 06:34:31;;;;;;;;;;;24.00;58.70;;;;;;5092296;28;19931;-60
2023/08/24 06:37:01;;;;;;;;;;;23.90;58.70;;;;;;5087688;28;19988;-60
2023/08/24 06:39:28;;;;;;;;;;;23.90;58.90;;;;;;5092085;28;19919;-59
2023/08/24 06:41:54;;;;;;;;;;;23.80;59.00;;;;;;5094566;28;19931;-59
2023/08/24 06:44:21;;;;;;;;;;;23.80;59.10;;;;;;5111049;28;19934;-59
2023/08/24 06:46:48;;;;;;;;;;;23.80;59.20;;;;;;5098476;28;20334;-59
2023/08/24 06:49:15;;;;;;;;;;;23.80;59.30;;;;;;5095200;27;19930;-59
2023/08/24 06:51:42;;;;;;;;;;;23.80;59.30;;;;;;5120100;27;19931;-60
2023/08/24 06:54:10;;;;;;;;;;;23.80;59.40;;;;;;5102863;27;19932;-59
2023/08/24 06:56:36;;;;;;;;;;;23.70;59.30;;;;;;5091426;28;19931;-59
2023/08/24 06:59:03;;;;;;;;;;;23.70;59.30;;;;;;5102645;28;19923;-60
2023/08/24 07:01:31;;;;;;;;;;;23.70;59.30;;;;;;5101354;28;19923;-60
2023/08/24 07:03:58;;;;;;;;;;;23.70;59.20;;;;;;5106623;27;19931;-60
2023/08/24 07:06:25;;;;;;;;;;;23.70;59.30;;;;;;5125430;27;19924;-60
2023/08/24 07:08:52;;;;;;;;;;;23.60;59.10;;;;;;5115717;27;19928;-58
2023/08/24 07:11:20;;;;;;;;;;;23.60;59.20;;;;;;5097970;28;19928;-59
2023/08/24 07:13:48;;;;;;;;;;;23.60;59.10;;;;;;5101299;27;19932;-58
2023/08/24 07:16:15;;;;;;;;;;;23.60;59.20;;;;;;5116470;27;19927;-59
2023/08/24 07:18:41;;;;;;;;;;;23.60;59.20;;;;;;5097858;27;20343;-58
2023/08/24 07:21:08;;;;;;;;;;;23.50;59.00;;;;;;5113243;27;19943;-60
2023/08/24 07:23:35;;;;;;;;;;;23.50;59.10;;;;;;5098188;28;19945;-60
2023/08/24 07:26:02;;;;;;;;;;;23.50;59.30;;;;;;5097293;28;19928;-60
2023/08/24 07:28:30;;;;;;;;;;;23.50;59.30;;;;;;5095267;28;19924;-59
2023/08/24 07:30:57;;;;;;;;;;;23.50;59.40;;;;;;5120306;27;19930;-61
2023/08/24 07:33:24;;;;;;;;;;;23.50;59.40;;;;;;5102090;28;19933;-60
2023/08/24 07:35:51;;;;;;;;;;;23.50;59.40;;;;;;5099759;27;20311;-60
2023/08/24 07:38:18;;;;;;;;;;;23.50;59.40;;;;;;5099121;28;19946;-60
2023/08/24 07:40:44;;;;;;;;;;;23.40;59.30;;;;;;5118250;27;20273;-59
2023/08/24 07:43:11;;;;;;;;;;;23.40;59.20;;;;;;5114361;27;19997;-61
2023/08/24 07:45:40;;;;;;;;;;;23.40;59.40;;;;;;5096437;28;19924;-62
2023/08/24 07:48:07;;;;;;;;;;;23.40;59.50;;;;;;5115867;27;19967;-61
2023/08/24 07:50:34;;;;;;;;;;;23.40;59.30;;;;;;5122224;27;19923;-60
2023/08/24 07:53:01;;;;;;;;;;;23.40;59.20;;;;;;5096292;28;20357;-59
2023/08/24 07:55:27;;;;;;;;;;;23.40;59.20;;;;;;5089422;28;19924;-59
2023/08/24 07:57:54;;;;;;;;;;;23.40;59.30;;;;;;5100262;27;19931;-59
2023/08/24 08:00:21;;;;;;;;;;;23.30;59.30;;;;;;5099232;28;20269;-60
2023/08/24 08:02:51;;;;;;;;;;;23.30;59.30;;;;;;5117479;27;20003;-59
2023/08/24 08:05:18;;;;;;;;;;;23.30;59.30;;;;;;5099936;27;19927;-60
2023/08/24 08:07:45;;;;;;;;;;;23.30;59.30;;;;;;5103984;27;19924;-60
2023/08/24 08:10:11;;;;;;;;;;;23.30;59.30;;;;;;5111238;27;19924;-60
2023/08/24 08:12:38;;;;;;;;;;;23.30;59.50;;;;;;5102582;27;19924;-60
2023/08/24 08:15:05;;;;;;;;;;;23.30;59.50;;;;;;5108453;28;19924;-60
2023/08/24 08:17:33;;;;;;;;;;;23.30;59.40;;;;;;5101563;28;19923;-59
2023/08/24 08:20:02;;;;;;;;;;;23.30;59.30;;;;;;5111740;27;19928;-61
2023/08/24 08:22:29;;;;;;;;;;;23.30;59.30;;;;;;5120671;27;19978;-61
2023/08/24 08:24:56;;;;;;;;;;;23.40;59.30;;;;;;5098937;27;19986;-61
2023/08/24 08:27:22;;;;;;;;;;;23.40;59.30;;;;;;5092057;28;19928;-60
2023/08/24 08:29:49;;;;;;;;;;;23.30;59.20;;;;;;5095305;28;19932;-61
2023/08/24 08:32:16;;;;;;;;;;;23.40;59.20;;;;;;5099276;28;19927;-61
2023/08/24 08:34:43;;;;;;;;;;;23.40;59.10;;;;;;5095412;27;19935;-61
2023/08/24 08:37:11;;;;;;;;;;;23.40;59.30;;;;;;5093889;28;19924;-61
2023/08/24 08:39:38;;;;;;;;;;;23.30;59.20;;;;;;5097336;28;19988;-60
2023/08/24 08:42:04;;;;;;;;;;;23.40;59.20;;;;;;5102065;27;19966;-60
2023/08/24 08:44:32;;;;;;;;;;;23.40;59.40;;;;;;5101560;28;19920;-61
2023/08/24 08:46:58;;;;;;;;;;;23.40;59.50;;;;;;5096574;27;19923;-61
2023/08/24 08:49:25;;;;;;;;;;;23.40;59.40;;;;;;5094925;28;19924;-61
2023/08/24 08:51:52;;;;;;;;;;;23.40;59.40;;;;;;5096028;28;19931;-60
2023/08/24 08:54:20;;;;;;;;;;;23.40;59.50;;;;;;5093762;28;19925;-60
2023/08/24 08:56:47;;;;;;;;;;;23.40;59.60;;;;;;5094720;28;19928;-60
2023/08/24 08:59:14;;;;;;;;;;;23.40;59.50;;;;;;5095064;28;19927;-59
2023/08/24 09:01:41;;;;;;;;;;;23.40;59.60;;;;;;5122115;27;19924;-61
2023/08/24 09:04:08;;;;;;;;;;;23.40;59.60;;;;;;5116125;27;19927;-62
2023/08/24 09:06:35;;;;;;;;;;;23.40;59.60;;;;;;5096648;27;20123;-61
2023/08/24 09:09:02;;;;;;;;;;;23.40;59.60;;;;;;5104308;28;19943;-61
2023/08/24 09:11:30;;;;;;;;;;;23.40;59.60;;;;;;5118039;27;19920;-60
2023/08/24 09:13:56;;;;;;;;;;;23.40;59.50;;;;;;5125030;27;19938;-61
2023/08/24 09:16:23;;;;;;;;;;;23.40;59.50;;;;;;5100219;28;19924;-60
2023/08/24 09:18:50;;;;;;;;;;;23.40;59.40;;;;;;5094203;28;19939;-60
2023/08/24 09:21:17;;;;;;;;;;;23.40;59.30;;;;;;5111330;27;20045;-60
2023/08/24 09:23:47;;;;;;;;;;;23.50;59.50;;;;;;5094059;28;19938;-60
2023/08/24 09:26:14;;;;;;;;;;;23.50;59.40;;;;;;5095857;28;19923;-60
2023/08/24 09:28:44;;;;;;;;;;;23.50;59.40;;;;;;5096231;28;19930;-61
2023/08/24 09:31:12;;;;;;;;;;;23.50;59.30;;;;;;5101132;27;20376;-61
2023/08/24 09:33:39;;;;;;;;;;;23.50;59.20;;;;;;5093580;27;19928;-61
2023/08/24 09:36:07;;;;;;;;;;;23.50;59.10;;;;;;5100379;28;19924;-62
2023/08/24 09:38:35;;;;;;;;;;;23.50;59.10;;;;;;5096512;28;19959;-61
2023/08/24 09:41:02;;;;;;;;;;;23.50;59.10;;;;;;5095259;27;20544;-61
2023/08/24 09:43:30;;;;;;;;;;;23.50;59.00;;;;;;5122695;27;20018;-61
2023/08/24 09:45:59;;;;;;;;;;;23.60;59.10;;;;;;5116896;27;19931;-61
2023/08/24 09:48:25;;;;;;;;;;;23.60;59.20;;;;;;5097546;28;19923;-60
2023/08/24 09:50:52;;;;;;;;;;;23.60;59.10;;;;;;5097620;27;19923;-61
2023/08/24 09:53:20;;;;;;;;;;;23.60;59.20;;;;;;5117144;27;19923;-60
2023/08/24 09:55:49;;;;;;;;;;;23.60;59.10;;;;;;5101344;27;19974;-60
2023/08/24 09:58:16;;;;;;;;;;;23.60;59.10;;;;;;5094801;28;19930;-61
2023/08/24 10:00:43;;;;;;;;;;;23.60;59.10;;;;;;5096016;27;19950;-60
2023/08/24 10:03:13;;;;;;;;;;;23.60;59.10;;;;;;5091383;28;20026;-60
2023/08/24 10:05:41;;;;;;;;;;;23.60;59.10;;;;;;5102015;27;20567;-60
2023/08/24 10:08:08;;;;;;;;;;;23.70;59.20;;;;;;5100791;27;19923;-61
2023/08/24 10:10:35;;;;;;;;;;;23.70;59.30;;;;;;5114871;28;19946;-60
2023/08/24 10:13:08;;;;;;;;;;;23.70;59.30;;;;;;5114057;28;19927;-62
2023/08/24 10:15:34;;;;;;;;;;;23.70;59.20;;;;;;5095431;28;20353;-63
2023/08/24 10:18:01;;;;;;;;;;;23.70;59.20;;;;;;5128173;27;19928;-60
2023/08/24 10:20:30;;;;;;;;;;;23.70;59.20;;;;;;5091144;28;19920;-60
2023/08/24 10:22:57;;;;;;;;;;;23.70;59.10;;;;;;5097506;28;19927;-61
2023/08/24 10:25:24;;;;;;;;;;;23.80;59.20;;;;;;5120042;27;19931;-61
2023/08/24 10:27:53;;;;;;;;;;;23.70;59.10;;;;;;5095976;28;20074;-60
2023/08/24 10:30:20;;;;;;;;;;;23.80;59.20;;;;;;5101562;28;19928;-59
2023/08/24 10:32:48;;;;;;;;;;;23.80;59.30;;;;;;5095039;28;19934;-60
2023/08/24 10:35:15;;;;;;;;;;;23.80;59.20;;;;;;5129241;27;19957;-60
2023/08/24 10:37:44;;;;;;;;;;;23.80;59.20;;;;;;5104779;28;19923;-59
2023/08/24 10:40:12;;;;;;;;;;;23.80;59.20;;;;;;5115970;28;19923;-61
2023/08/24 10:42:45;;;;;;;;;;;23.70;59.10;;;;;;5098892;28;19924;-60
2023/08/24 10:45:13;;;;;;;;;;;23.80;59.20;;;;;;5101608;28;19924;-60
2023/08/24 10:47:45;;;;;;;;;;;23.80;59.20;;;;;;5098498;28;19924;-58
2023/08/24 10:50:12;;;;;;;;;;;23.80;59.20;;;;;;5097570;28;19973;-59
2023/08/24 10:52:40;;;;;;;;;;;23.80;59.30;;;;;;5124823;28;19957;-61
2023/08/24 10:55:22;;;;;;;;;;;23.80;59.20;;;;;;5088284;28;20363;-61
2023/08/24 10:57:56;;;;;;;;;;;23.80;59.20;;;;;;5117890;28;19949;-61
2023/08/24 11:00:23;;;;;;;;;;;23.80;59.20;;;;;;5091150;28;19920;-61
2023/08/24 11:02:50;;;;;;;;;;;23.80;59.20;;;;;;5089682;28;19924;-62
2023/08/24 11:05:18;;;;;;;;;;;23.80;59.20;;;;;;5100680;28;19931;-61
2023/08/24 11:07:51;;;;;;;;;;;23.80;59.20;;;;;;5088317;28;19931;-61
2023/08/24 11:10:19;;;;;;;;;;;23.90;59.30;;;;;;5090884;28;19928;-61
2023/08/24 11:13:04;;;;;;;;;;;23.90;59.30;;;;;;5091606;28;19928;-61
2023/08/24 11:15:31;;;;;;;;;;;23.80;59.20;;;;;;5103116;28;19924;-61
2023/08/24 11:18:12;;;;;;;;;;;23.90;59.30;;;;;;5090613;28;19971;-61
2023/08/24 11:20:38;;;;;;;;;;;23.90;59.30;;;;;;5086928;28;19924;-61
2023/08/24 11:23:05;;;;;;;;;;;23.90;59.30;;;;;;5096179;28;19927;-61
2023/08/24 11:25:33;;;;;;;;;;;23.80;59.20;;;;;;5128047;27;19924;-61
2023/08/24 11:28:00;;;;;;;;;;;23.80;59.10;;;;;;5092175;28;19931;-60
2023/08/24 11:30:27;;;;;;;;;;;23.90;59.20;;;;;;5106104;28;19927;-60
2023/08/24 11:32:54;;;;;;;;;;;23.90;59.20;;;;;;5090941;28;19924;-58
2023/08/24 11:35:22;;;;;;;;;;;23.80;59.20;;;;;;5101006;27;19931;-60
2023/08/24 11:37:52;;;;;;;;;;;23.90;59.30;;;;;;5106107;27;20010;-61
2023/08/24 11:40:19;;;;;;;;;;;23.90;59.30;;;;;;5103212;28;19928;-61
2023/08/24 11:42:49;;;;;;;;;;;23.90;59.20;;;;;;5133457;27;19927;-61
2023/08/24 11:45:16;;;;;;;;;;;23.90;59.20;;;;;;5110603;28;19967;-61
2023/08/24 11:47:43;;;;;;;;;;;23.90;59.10;;;;;;5099365;28;19928;-60
2023/08/24 11:50:10;;;;;;;;;;;23.90;59.10;;;;;;5110531;27;19932;-60
2023/08/24 11:52:40;;;;;;;;;;;23.90;59.10;;;;;;5099467;28;20276;-61
2023/08/24 11:55:08;;;;;;;;;;;23.90;59.10;;;;;;5102366;27;19930;-61
2023/08/24 11:57:35;;;;;;;;;;;23.90;59.10;;;;;;5099185;28;19924;-61
2023/08/24 12:00:04;;;;;;;;;;;23.90;59.10;;;;;;5101569;27;19924;-61
2023/08/24 12:02:32;;;;;;;;;;;23.90;59.10;;;;;;5095773;28;20284;-61
2023/08/24 12:04:59;;;;;;;;;;;24.00;59.10;;;;;;5099693;28;20291;-61
2023/08/24 12:07:26;;;;;;;;;;;24.00;59.20;;;;;;5099853;28;19998;-61
2023/08/24 12:09:54;;;;;;;;;;;24.00;59.20;;;;;;5106887;27;19923;-61
2023/08/24 12:12:23;;;;;;;;;;;24.00;59.10;;;;;;5100649;28;19936;-62
2023/08/24 12:14:50;;;;;;;;;;;24.00;59.10;;;;;;5100647;28;19971;-60
2023/08/24 12:17:18;;;;;;;;;;;24.10;59.20;;;;;;5128968;27;19923;-60
2023/08/24 12:19:45;;;;;;;;;;;24.10;59.20;;;;;;5114787;27;19923;-59
2023/08/24 12:22:16;;;;;;;;;;;24.10;59.10;;;;;;5129079;27;20010;-59
2023/08/24 12:24:44;;;;;;;;;;;24.10;59.20;;;;;;5102254;27;19930;-59
2023/08/24 12:27:18;;;;;;;;;;;24.10;59.20;;;;;;5117179;27;19927;-61
2023/08/24 12:29:45;;;;;;;;;;;24.10;59.10;;;;;;5124686;27;19931;-60
2023/08/24 12:32:12;;;;;;;;;;;24.10;59.10;;;;;;5095303;28;19927;-60
2023/08/24 12:34:40;;;;;;;;;;;24.10;59.10;;;;;;5100271;27;19931;-59
2023/08/24 12:37:07;;;;;;;;;;;24.10;59.20;;;;;;5096602;28;19934;-61
2023/08/24 12:39:35;;;;;;;;;;;24.10;59.10;;;;;;5118058;27;19928;-60
2023/08/24 12:42:02;;;;;;;;;;;24.10;59.10;;;;;;5096293;28;19932;-59
2023/08/24 12:44:29;;;;;;;;;;;24.10;59.10;;;;;;5101906;28;19924;-59
2023/08/24 12:46:56;;;;;;;;;;;24.10;59.20;;;;;;5098774;27;19976;-61
2023/08/24 12:49:22;;;;;;;;;;;24.10;59.10;;;;;;5116820;27;19931;-61
2023/08/24 12:51:51;;;;;;;;;;;24.10;59.10;;;;;;5120906;27;19927;-61
2023/08/24 12:54:17;;;;;;;;;;;24.20;59.20;;;;;;5094784;28;19969;-61
2023/08/24 12:56:44;;;;;;;;;;;24.20;59.10;;;;;;5098446;27;19927;-61
2023/08/24 12:59:11;;;;;;;;;;;24.20;59.10;;;;;;5123570;27;19931;-61
2023/08/24 13:01:38;;;;;;;;;;;24.20;59.10;;;;;;5111221;27;19924;-61
2023/08/24 13:04:05;;;;;;;;;;;24.20;59.10;;;;;;5106774;28;19925;-63
2023/08/24 13:06:32;;;;;;;;;;;24.20;59.10;;;;;;5096140;28;19981;-60
2023/08/24 13:09:00;;;;;;;;;;;24.20;59.00;;;;;;5118799;27;19928;-60
2023/08/24 13:11:27;;;;;;;;;;;24.20;59.10;;;;;;5090513;28;19932;-61
2023/08/24 13:13:54;;;;;;;;;;;24.30;59.20;;;;;;5101303;28;20414;-60
2023/08/24 13:16:20;;;;;;;;;;;24.20;59.10;;;;;;5095429;28;20026;-61
2023/08/24 13:18:47;;;;;;;;;;;24.20;59.00;;;;;;5115146;27;19924;-61
2023/08/24 13:21:14;;;;;;;;;;;24.20;59.10;;;;;;5119779;27;19928;-60
2023/08/24 13:23:41;;;;;;;;;;;24.30;59.20;;;;;;5097825;27;19924;-60
2023/08/24 13:26:10;;;;;;;;;;;24.30;59.20;;;;;;5102159;28;19924;-60
2023/08/24 13:28:36;;;;;;;;;;;24.30;59.20;;;;;;5109076;27;19928;-61
2023/08/24 13:31:03;;;;;;;;;;;24.30;59.20;;;;;;5100697;27;19975;-60
2023/08/24 13:33:30;;;;;;;;;;;24.30;59.20;;;;;;5095621;27;19971;-60
2023/08/24 13:35:57;;;;;;;;;;;24.30;59.20;;;;;;5101025;28;19928;-60
2023/08/24 13:38:24;;;;;;;;;;;24.30;59.20;;;;;;5093127;28;20015;-60
2023/08/24 13:40:51;;;;;;;;;;;24.30;59.20;;;;;;5113576;27;19924;-59
2023/08/24 13:43:20;;;;;;;;;;;24.30;59.20;;;;;;5093142;28;20000;-60
2023/08/24 13:45:47;;;;;;;;;;;24.30;59.20;;;;;;5118139;27;19966;-61
2023/08/24 13:48:13;;;;;;;;;;;24.30;59.20;;;;;;5110970;27;19980;-59
2023/08/24 13:50:41;;;;;;;;;;;24.30;59.20;;;;;;5095667;27;19930;-61
2023/08/24 13:53:08;;;;;;;;;;;24.30;59.20;;;;;;5100950;27;19974;-58
2023/08/24 13:55:37;;;;;;;;;;;24.30;59.20;;;;;;5097525;28;19924;-60
2023/08/24 13:58:04;;;;;;;;;;;24.30;59.20;;;;;;5095576;28;20041;-61
2023/08/24 14:00:32;;;;;;;;;;;24.30;59.20;;;;;;5093033;28;19924;-61
2023/08/24 14:02:59;;;;;;;;;;;24.30;59.20;;;;;;5115017;27;19934;-59
2023/08/24 14:05:26;;;;;;;;;;;24.30;59.20;;;;;;5118297;27;19935;-59
2023/08/24 14:07:52;;;;;;;;;;;24.30;59.10;;;;;;5104397;28;19924;-60
2023/08/24 14:10:19;;;;;;;;;;;24.40;59.20;;;;;;5090907;28;20339;-60
2023/08/24 14:12:46;;;;;;;;;;;24.30;59.10;;;;;;5097656;27;19930;-59
2023/08/24 14:15:13;;;;;;;;;;;24.30;59.10;;;;;;5116475;27;19946;-59
2023/08/24 14:17:42;;;;;;;;;;;24.30;59.10;;;;;;5123402;27;19953;-59